Terminal Aerodrome Forecast
Issued by NWS Louisville, KY

Home | Current Version | Previous Version | Text Only | Print | Product List | Glossary On
Versions: 1 2 3 4 5 6 7 8 9 10 11 12 13 14 15 16 17 18
037
FTUS43 KLMK 240530
TAFLEX
TAF
KLEX 240530Z 2406/2506 20009KT P6SM VCSH BKN080
      TEMPO 2407/2410 6SM -SHRA BKN035
     FM241000 24012KT P6SM BKN080
     FM241500 25017G24KT P6SM BKN040
     FM250000 24008KT P6SM SCT035 BKN090=

USA.gov is the U.S. government's official web portal to all federal, state and local government web resources and services.